createdAt,value
2022-08-20T00:03:31.616Z,57.87
2022-08-20T00:08:34.817Z,58.60
2022-08-20T00:13:43.959Z,59.77
2022-08-20T00:18:47.978Z,60.97
2022-08-20T00:23:56.127Z,62.11
2022-08-20T00:28:59.265Z,67.60
2022-08-20T00:34:02.353Z,62.86
2022-08-20T00:39:05.411Z,57.05
2022-08-20T00:44:19.912Z,57.04
2022-08-20T00:49:32.686Z,58.42
2022-08-20T00:54:48.667Z,59.91
2022-08-20T00:59:53.632Z,61.08
2022-08-20T01:04:57.481Z,66.18
2022-08-20T01:10:13.412Z,62.73
2022-08-20T01:15:23.258Z,56.77
2022-08-20T01:20:37.818Z,57.12
2022-08-20T01:26:03.572Z,58.50
2022-08-20T01:31:11.893Z,60.03
2022-08-20T01:36:18.035Z,61.15
2022-08-20T01:42:05.779Z,66.11
2022-08-20T01:47:36.391Z,62.36
2022-08-20T01:53:11.023Z,56.41
2022-08-20T01:58:14.138Z,57.08
2022-08-20T02:03:17.183Z,59.18
2022-08-20T02:08:22.255Z,60.59
2022-08-20T02:13:25.228Z,61.65
2022-08-20T02:18:28.330Z,66.72
2022-08-20T02:23:31.449Z,63.07
2022-08-20T02:28:34.939Z,57.83
2022-08-20T02:33:39.148Z,56.47
2022-08-20T02:38:42.350Z,58.42
2022-08-20T02:43:45.321Z,59.96
2022-08-20T02:48:48.291Z,61.19
2022-08-20T02:53:51.833Z,66.39
2022-08-20T02:58:54.933Z,63.09
2022-08-20T03:04:00.345Z,58.23
2022-08-20T03:09:07.972Z,56.74
2022-08-20T03:14:11.989Z,58.48
2022-08-20T03:19:15.029Z,59.62
2022-08-20T03:24:18.187Z,60.93
2022-08-20T03:29:21.220Z,66.17
2022-08-20T03:34:24.270Z,63.17
2022-08-20T03:39:27.333Z,58.95
2022-08-20T03:44:30.780Z,56.22
2022-08-20T03:49:35.903Z,58.05
2022-08-20T03:54:39.008Z,59.71
2022-08-20T03:59:44.648Z,60.98
2022-08-20T04:04:48.694Z,65.82
2022-08-20T04:09:56.891Z,62.60
2022-08-20T04:14:59.913Z,57.20
2022-08-20T04:20:06.947Z,57.12
2022-08-20T04:25:10.138Z,58.84
2022-08-20T04:30:23.146Z,60.33
2022-08-20T04:35:27.385Z,61.74
2022-08-20T04:40:49.968Z,67.00
2022-08-20T04:45:54.647Z,62.65
2022-08-20T04:50:59.025Z,56.98
2022-08-20T04:56:03.306Z,57.08
2022-08-20T05:01:11.924Z,58.40
2022-08-20T05:06:16.454Z,59.51
2022-08-20T05:11:34.053Z,60.38
2022-08-20T05:16:40.994Z,60.86
2022-08-20T05:21:44.239Z,61.05
2022-08-20T05:26:47.910Z,60.92
2022-08-20T05:31:51.215Z,60.10
2022-08-20T05:36:54.149Z,59.34
2022-08-20T05:41:59.376Z,58.64
2022-08-20T05:47:04.187Z,58.15
2022-08-20T05:52:07.410Z,58.36
2022-08-20T05:57:10.410Z,58.65
2022-08-20T06:02:32.393Z,58.97
2022-08-20T06:07:35.482Z,59.20
2022-08-20T06:12:39.201Z,59.64
2022-08-20T06:17:42.229Z,59.94
2022-08-20T06:22:45.267Z,60.61
2022-08-20T06:27:48.328Z,61.35
2022-08-20T06:32:51.462Z,61.85
2022-08-20T06:37:54.701Z,64.61
2022-08-20T06:42:58.262Z,63.15
2022-08-20T06:48:08.570Z,58.16
2022-08-20T06:53:16.685Z,57.05
2022-08-20T06:58:37.804Z,57.85
2022-08-20T07:03:54.569Z,58.35
2022-08-20T07:08:58.959Z,59.74
2022-08-20T07:14:05.630Z,61.31
2022-08-20T07:19:08.686Z,61.66
2022-08-20T07:24:12.872Z,64.34
2022-08-20T07:29:15.918Z,60.07
2022-08-20T07:34:24.544Z,55.32
2022-08-20T07:39:28.515Z,55.90
2022-08-20T07:44:34.330Z,56.99
2022-08-20T07:49:41.708Z,58.78
2022-08-20T07:54:45.253Z,58.71
2022-08-20T07:59:48.997Z,59.60
2022-08-20T08:04:52.152Z,59.94
2022-08-20T08:09:57.377Z,59.65
2022-08-20T08:15:00.666Z,59.76
2022-08-20T08:20:07.884Z,59.17
2022-08-20T08:25:13.365Z,59.10
2022-08-20T08:30:17.630Z,58.68
2022-08-20T08:35:20.657Z,58.80
2022-08-20T08:40:23.814Z,58.77
2022-08-20T08:45:45.731Z,58.45
2022-08-20T08:50:54.812Z,58.43
2022-08-20T08:55:58.790Z,58.46
2022-08-20T09:01:09.876Z,57.97
2022-08-20T09:06:32.986Z,57.55
2022-08-20T09:11:53.338Z,57.55
2022-08-20T09:16:56.339Z,57.21
2022-08-20T09:21:59.486Z,57.40
2022-08-20T09:27:02.951Z,57.14
2022-08-20T09:32:20.682Z,56.45
2022-08-20T09:37:27.753Z,56.09
2022-08-20T09:42:40.960Z,55.65
2022-08-20T09:48:10.309Z,55.17
2022-08-20T09:53:08.138Z,54.92
2022-08-20T09:58:53.752Z,54.79
2022-08-20T10:03:56.737Z,54.48
2022-08-20T10:08:59.815Z,54.55
2022-08-20T10:14:03.332Z,53.99
2022-08-20T10:19:07.026Z,53.67
2022-08-20T10:24:10.076Z,53.08
2022-08-20T10:29:14.277Z,53.25
2022-08-20T10:34:17.829Z,53.62
2022-08-20T10:39:20.849Z,53.74
2022-08-20T10:44:23.869Z,53.75
2022-08-20T10:49:26.856Z,54.16
2022-08-20T10:54:29.859Z,54.09
2022-08-20T10:59:32.838Z,54.17
2022-08-20T11:04:37.215Z,53.52
2022-08-20T11:09:40.516Z,53.28
2022-08-20T11:14:43.548Z,52.69
2022-08-20T11:19:46.705Z,52.38
2022-08-20T11:24:50.077Z,51.97
2022-08-20T11:29:53.581Z,51.88
2022-08-20T11:34:56.585Z,51.65
2022-08-20T11:39:59.576Z,51.97
2022-08-20T11:45:02.968Z,52.46
2022-08-20T11:50:20.198Z,52.22
2022-08-20T11:55:23.574Z,51.77
2022-08-20T12:00:34.629Z,51.19
2022-08-20T12:05:41.410Z,51.55
2022-08-20T12:10:44.518Z,51.68
2022-08-20T12:15:50.295Z,51.20
2022-08-20T12:20:53.673Z,50.80
2022-08-20T12:25:56.705Z,50.47
2022-08-20T12:31:02.455Z,50.28
2022-08-20T12:36:06.209Z,50.28
2022-08-20T12:41:09.231Z,50.00
2022-08-20T12:46:12.307Z,50.06
2022-08-20T12:51:15.292Z,50.14
2022-08-20T12:56:18.321Z,50.27
2022-08-20T13:01:21.384Z,49.93
2022-08-20T13:06:24.423Z,49.69
2022-08-20T13:11:27.592Z,49.37
2022-08-20T13:16:30.690Z,49.05
2022-08-20T13:21:33.827Z,49.46
2022-08-20T13:26:36.799Z,50.10
2022-08-20T13:31:42.332Z,50.69
2022-08-20T13:36:45.396Z,50.34
2022-08-20T13:41:48.578Z,50.18
2022-08-20T13:46:51.573Z,49.79
2022-08-20T13:51:55.739Z,49.34
2022-08-20T13:57:20.180Z,49.26
2022-08-20T14:02:24.469Z,49.54
2022-08-20T14:07:32.835Z,49.83
2022-08-20T14:12:36.319Z,50.11
2022-08-20T14:17:43.538Z,50.19
2022-08-20T14:22:47.132Z,50.52
2022-08-20T14:27:51.140Z,50.36
2022-08-20T14:32:55.297Z,49.93
2022-08-20T14:37:58.883Z,49.47
2022-08-20T14:43:03.514Z,49.84
2022-08-20T14:48:09.468Z,49.39
2022-08-20T14:53:12.472Z,50.04
2022-08-20T14:58:17.118Z,49.97
2022-08-20T15:03:24.045Z,49.53
2022-08-20T15:08:28.852Z,49.60
2022-08-20T15:13:32.153Z,49.85
2022-08-20T15:18:35.479Z,49.86
2022-08-20T15:23:38.515Z,49.96
2022-08-20T15:28:41.852Z,49.94
2022-08-20T15:33:44.838Z,49.84
2022-08-20T15:38:47.929Z,50.01
2022-08-20T15:43:50.917Z,50.27
2022-08-20T15:48:54.014Z,50.20
2022-08-20T15:53:58.822Z,50.34
2022-08-20T15:59:34.252Z,50.44
2022-08-20T16:05:00.048Z,50.73
2022-08-20T16:10:26.747Z,50.91
2022-08-20T16:15:34.897Z,50.96
2022-08-20T16:20:48.734Z,51.02
2022-08-20T16:26:23.513Z,51.29
2022-08-20T16:31:40.929Z,51.46
2022-08-20T16:37:17.329Z,51.82
2022-08-20T16:42:25.945Z,51.98
2022-08-20T16:47:33.713Z,51.91
2022-08-20T16:52:36.856Z,52.01
2022-08-20T16:57:40.011Z,52.31
2022-08-20T17:03:06.466Z,52.67
2022-08-20T17:08:19.018Z,53.06
2022-08-20T17:13:37.242Z,53.41
2022-08-20T17:18:52.959Z,53.80
2022-08-20T17:24:27.754Z,54.04
2022-08-20T17:29:47.428Z,54.40
2022-08-20T17:34:57.048Z,54.76
2022-08-20T17:40:15.606Z,55.04
2022-08-20T17:45:29.997Z,55.36
2022-08-20T17:50:39.134Z,55.53
2022-08-20T17:55:43.009Z,55.88
2022-08-20T18:00:46.434Z,56.17
2022-08-20T18:06:29.870Z,56.46
2022-08-20T18:12:01.919Z,56.69
2022-08-20T18:17:50.404Z,57.01
2022-08-20T18:23:24.324Z,57.33
2022-08-20T18:28:46.457Z,57.53
2022-08-20T18:33:49.460Z,57.69
2022-08-20T18:39:23.659Z,57.87
2022-08-20T18:44:40.275Z,57.95
2022-08-20T18:49:43.283Z,58.11
2022-08-20T18:54:56.580Z,58.40
2022-08-20T19:00:17.918Z,58.65
2022-08-20T19:05:37.032Z,58.70
2022-08-20T19:10:46.110Z,58.81
2022-08-20T19:15:55.420Z,59.16
2022-08-20T19:21:02.691Z,59.47
2022-08-20T19:26:25.476Z,59.47
2022-08-20T19:31:35.261Z,59.89
2022-08-20T19:36:42.888Z,60.19
2022-08-20T19:42:26.051Z,60.30
2022-08-20T19:47:41.491Z,60.45
2022-08-20T19:53:08.632Z,60.92
2022-08-20T19:58:26.678Z,61.22
2022-08-20T20:03:35.379Z,61.57
2022-08-20T20:08:50.526Z,61.74
2022-08-20T20:13:53.983Z,62.01
2022-08-20T20:19:22.797Z,62.12
2022-08-20T20:24:28.738Z,62.15
2022-08-20T20:29:37.488Z,66.75
2022-08-20T20:34:55.199Z,63.35
2022-08-20T20:40:08.272Z,56.46
2022-08-20T20:45:34.999Z,55.46
2022-08-20T20:50:40.817Z,56.50
2022-08-20T20:55:55.321Z,57.43
2022-08-20T21:00:58.293Z,58.38
2022-08-20T21:06:02.765Z,59.25
2022-08-20T21:11:05.903Z,60.01
2022-08-20T21:16:09.174Z,60.50
2022-08-20T21:21:12.363Z,60.85
2022-08-20T21:26:18.924Z,61.34
2022-08-20T21:31:29.513Z,61.83
2022-08-20T21:36:33.151Z,66.76
2022-08-20T21:41:38.246Z,62.84
2022-08-20T21:46:41.296Z,56.34
2022-08-20T21:51:44.463Z,55.54
2022-08-20T21:57:11.537Z,56.63
2022-08-20T22:02:16.426Z,57.76
2022-08-20T22:07:19.630Z,58.95
2022-08-20T22:12:26.775Z,59.87
2022-08-20T22:17:29.958Z,60.75
2022-08-20T22:22:33.303Z,61.56
2022-08-20T22:27:36.389Z,66.23
2022-08-20T22:32:51.296Z,62.81
2022-08-20T22:37:55.956Z,56.56
2022-08-20T22:42:59.122Z,56.44
2022-08-20T22:48:03.029Z,57.78
2022-08-20T22:53:07.958Z,58.76
2022-08-20T22:58:11.435Z,59.79
2022-08-20T23:03:18.055Z,60.76
2022-08-20T23:08:34.931Z,61.57
2022-08-20T23:13:38.478Z,66.57
2022-08-20T23:18:41.552Z,62.73
2022-08-20T23:23:44.558Z,56.90
2022-08-20T23:28:47.909Z,56.55
2022-08-20T23:33:50.895Z,57.96
2022-08-20T23:38:54.281Z,59.45
2022-08-20T23:43:57.316Z,60.50
2022-08-20T23:49:00.338Z,61.46
2022-08-20T23:54:04.018Z,66.24
2022-08-20T23:59:07.022Z,62.93
